Hovedside
METAR-TAF:

METAR-TAF

Lufthavner :

Örnsköldsvik lufthavn

Örnsköldsvik, Sverige

breddegrad: 63-24N, lengdegrad: 018-58E, høyde over havet: 103 m

Gjeldene værobservasjon

Denne rapporten ble laget for 26 minutter siden, klokken 18:20 UTC
Vind 6 kt fra Vest-sørvest
Temperatur -5°C
Luftfuktighet 100%
Trykk 1035 hPa
Sikt 10 km eller mer
Overskyet i en høyde av 200 ft

METAR: ESNO 191820Z 24006KT 9999 OVC002 M05/M05 Q1035

Tid: 19:46 (18:46 UTC)

Varsel

Denne rapporten ble laget for 1 time og 16 minutter siden, klokken 17:30 UTC
Varsel gyldig fra 19. klokken 18 UTC til 19. klokken 23 UTC
Vind 6 kt fra Vest-sørvest
Sikt 10 km eller mer
Overskyet i en høyde av 200 ft
Sannsynlighet 40%
fra 19. klokken 18 UTC til 19. klokken 19 UTC
Spredte skyer i en høyde av 400 ft
Blir
fra 19. klokken 19 UTC til 19. klokken 21 UTC
Få skyer i en høyde av 500 ft

TAF: ESNO 191730Z 1918/1923 24006KT 9999 OVC002 PROB40 1918/1919 SCT004 BECMG 1919/1921 FEW005

Værobservasjoner og værvarsel for over 4000 flyplasser (METAR- og TAF-rapporter).

Tilgjengelige stasjoner er representert av de røde og gule prikkene på kartet.

Hold musepekeren over prikken for å se navnet på stasjonen.

Klikk så for å se værobservasjoner og -varsler.

For å forandre kartet kan du klikke på den grønne knappen med svart kryss for å zoome inn, på den grønne knappen med strek for å zoome ut, eller på de grønne pilene for å se tilstøtende kart.


METAR-TAF: